createdAt,value
2023-03-27T00:00:22.421Z,3.5
2023-03-27T00:02:19.318Z,3.5
2023-03-27T00:04:19.009Z,3.5
2023-03-27T00:06:19.106Z,3.4
2023-03-27T00:08:17.887Z,3.5
2023-03-27T00:10:17.183Z,3.4
2023-03-27T00:12:16.584Z,3.4
2023-03-27T00:14:16.260Z,3.4
2023-03-27T00:16:15.947Z,3.4
2023-03-27T00:18:15.914Z,3.5
2023-03-27T00:20:20.091Z,3.4
2023-03-27T00:22:14.767Z,3.4
2023-03-27T00:24:14.941Z,3.4
2023-03-27T00:26:14.590Z,3.4
2023-03-27T00:28:14.510Z,3.5
2023-03-27T00:30:13.638Z,3.4
2023-03-27T00:32:12.963Z,3.4
2023-03-27T00:34:12.437Z,3.4
2023-03-27T00:36:12.336Z,3.4
2023-03-27T00:38:11.732Z,3.4
2023-03-27T00:40:13.436Z,3.4
2023-03-27T00:42:13.083Z,3.4
2023-03-27T00:44:22.924Z,3.4
2023-03-27T00:46:26.667Z,3.4
2023-03-27T00:48:09.608Z,3.4
2023-03-27T00:50:13.687Z,3.4
2023-03-27T00:52:09.810Z,3.4
2023-03-27T00:54:09.861Z,3.4
2023-03-27T00:56:09.534Z,3.4
2023-03-27T00:58:12.411Z,3.4
2023-03-27T01:00:12.285Z,3.5
2023-03-27T01:02:08.908Z,3.5
2023-03-27T01:04:07.142Z,3.5
2023-03-27T01:08:06.776Z,3.5
2023-03-27T01:10:07.751Z,3.4
2023-03-27T01:14:14.825Z,3.4
2023-03-27T01:16:12.793Z,3.4
2023-03-27T01:18:17.945Z,3.4
2023-03-27T01:22:22.655Z,3.5
2023-03-27T01:24:22.106Z,3.5
2023-03-27T01:26:36.385Z,3.4
2023-03-27T01:28:21.419Z,3.5
2023-03-27T01:30:14.281Z,3.4
2023-03-27T01:32:21.033Z,3.4
2023-03-27T01:34:18.865Z,3.5
2023-03-27T01:36:13.535Z,3.5
2023-03-27T01:38:14.766Z,3.4
2023-03-27T01:40:04.098Z,3.4
2023-03-27T01:42:05.901Z,3.4
2023-03-27T01:46:05.747Z,3.5
2023-03-27T01:48:02.288Z,3.5
2023-03-27T01:50:06.009Z,3.5
2023-03-27T01:52:01.323Z,3.4
2023-03-27T01:54:00.474Z,3.4
2023-03-27T01:57:59.777Z,3.4
2023-03-27T02:00:18.112Z,3.5
2023-03-27T02:02:00.674Z,3.5
2023-03-27T02:03:59.054Z,3.5
2023-03-27T02:05:57.722Z,3.4
2023-03-27T02:07:59.124Z,3.4
2023-03-27T02:09:57.899Z,3.4
2023-03-27T02:11:59.088Z,3.4
2023-03-27T02:13:56.697Z,3.4
2023-03-27T02:15:55.803Z,3.4
2023-03-27T02:17:56.323Z,3.4
2023-03-27T02:19:55.847Z,3.3
2023-03-27T02:21:50.778Z,3.3
2023-03-27T02:23:50.089Z,3.3
2023-03-27T02:25:54.067Z,3.4
2023-03-27T02:28:01.204Z,3.4
2023-03-27T02:29:58.809Z,3.4
2023-03-27T02:34:01.726Z,3.4
2023-03-27T02:35:56.815Z,3.4
2023-03-27T02:37:55.626Z,3.4
2023-03-27T02:39:54.580Z,3.4
2023-03-27T02:41:53.620Z,3.4
2023-03-27T02:43:56.044Z,3.4
2023-03-27T02:45:54.179Z,3.4
2023-03-27T02:47:51.735Z,3.4
2023-03-27T02:49:50.270Z,3.4
2023-03-27T02:51:49.901Z,3.4
2023-03-27T02:55:49.585Z,3.4
2023-03-27T02:57:52.429Z,3.4
2023-03-27T02:59:48.158Z,3.4
2023-03-27T03:03:52.560Z,3.4
2023-03-27T03:05:42.563Z,3.3
2023-03-27T03:09:43.544Z,3.4
2023-03-27T03:11:45.282Z,3.4
2023-03-27T03:13:40.233Z,3.4
2023-03-27T03:19:39.442Z,3.4
2023-03-27T03:21:38.806Z,3.4
2023-03-27T03:23:38.166Z,3.4
2023-03-27T03:25:38.329Z,3.5
2023-03-27T03:27:38.034Z,3.5
2023-03-27T03:29:36.741Z,3.4
2023-03-27T03:31:41.919Z,3.4
2023-03-27T03:33:36.490Z,3.4
2023-03-27T03:35:35.679Z,3.4
2023-03-27T03:37:37.938Z,3.4
2023-03-27T03:39:34.723Z,3.3
2023-03-27T03:41:34.514Z,3.4
2023-03-27T03:45:33.629Z,3.3
2023-03-27T03:47:33.144Z,3.4
2023-03-27T03:49:32.670Z,3.3
2023-03-27T03:51:34.381Z,3.3
2023-03-27T03:53:31.971Z,3.3
2023-03-27T03:55:31.375Z,3.2
2023-03-27T03:57:31.408Z,3.2
2023-03-27T03:59:30.700Z,3.1
2023-03-27T04:01:30.198Z,3.2
2023-03-27T04:05:29.813Z,3.2
2023-03-27T04:09:28.569Z,3.2
2023-03-27T04:11:28.304Z,3.2
2023-03-27T04:13:27.569Z,3.1
2023-03-27T04:15:27.345Z,3.1
2023-03-27T04:17:26.952Z,3.1
2023-03-27T04:21:26.320Z,3.1
2023-03-27T04:23:29.548Z,3.1
2023-03-27T04:25:25.361Z,3.0
2023-03-27T04:27:29.264Z,3.1
2023-03-27T04:29:24.880Z,3.1
2023-03-27T04:31:25.177Z,3.1
2023-03-27T04:33:23.693Z,3.0
2023-03-27T04:35:23.783Z,3.0
2023-03-27T04:37:23.605Z,3.0
2023-03-27T04:39:22.308Z,3.0
2023-03-27T04:41:21.666Z,2.9
2023-03-27T04:43:24.952Z,2.9
2023-03-27T04:45:21.646Z,2.9
2023-03-27T04:47:20.664Z,3.0
2023-03-27T04:49:19.999Z,3.0
2023-03-27T04:51:19.907Z,2.9
2023-03-27T04:53:19.495Z,2.9
2023-03-27T04:55:18.935Z,2.9
2023-03-27T04:57:21.149Z,2.9
2023-03-27T04:59:17.861Z,2.8
2023-03-27T05:01:18.006Z,2.7
2023-03-27T05:03:17.943Z,2.8
2023-03-27T05:05:17.313Z,2.8
2023-03-27T05:07:16.251Z,2.8
2023-03-27T05:11:15.732Z,2.9
2023-03-27T05:13:14.888Z,2.9
2023-03-27T05:15:16.487Z,2.8
2023-03-27T05:17:14.463Z,2.9
2023-03-27T05:19:13.849Z,2.9
2023-03-27T05:21:13.763Z,2.8
2023-03-27T05:23:13.217Z,2.9
2023-03-27T05:25:12.720Z,2.9
2023-03-27T05:27:11.968Z,2.9
2023-03-27T05:29:11.549Z,2.9
2023-03-27T05:31:11.439Z,2.9
2023-03-27T05:33:12.920Z,2.8
2023-03-27T05:35:10.413Z,2.9
2023-03-27T05:37:10.126Z,2.9
2023-03-27T05:39:09.343Z,2.9
2023-03-27T05:41:09.207Z,2.9
2023-03-27T05:43:08.773Z,2.9
2023-03-27T05:45:08.638Z,2.9
2023-03-27T05:47:09.254Z,2.8
2023-03-27T05:49:07.840Z,2.8
2023-03-27T05:53:09.024Z,2.8
2023-03-27T05:55:07.481Z,2.8
2023-03-27T05:57:05.658Z,2.7
2023-03-27T05:59:05.324Z,2.5
2023-03-27T06:03:04.396Z,2.5
2023-03-27T06:05:04.617Z,2.6
2023-03-27T06:07:03.584Z,2.6
2023-03-27T06:09:03.647Z,2.6
2023-03-27T06:11:07.522Z,2.5
2023-03-27T06:13:04.058Z,2.6
2023-03-27T06:15:01.807Z,2.6
2023-03-27T06:19:01.875Z,2.7
2023-03-27T06:24:59.786Z,2.8
2023-03-27T06:26:58.892Z,2.9
2023-03-27T06:28:58.509Z,2.9
2023-03-27T06:30:58.756Z,2.9
2023-03-27T06:32:59.789Z,2.8
2023-03-27T06:34:57.202Z,2.8
2023-03-27T06:36:58.794Z,2.8
2023-03-27T06:38:56.305Z,2.8
2023-03-27T06:40:56.216Z,2.7
2023-03-27T06:42:57.221Z,2.7
2023-03-27T06:44:55.825Z,2.7
2023-03-27T06:46:55.256Z,2.7
2023-03-27T06:48:54.734Z,2.8
2023-03-27T06:50:53.962Z,2.8
2023-03-27T06:52:54.242Z,2.8
2023-03-27T06:56:52.812Z,2.9
2023-03-27T06:58:51.988Z,2.9
2023-03-27T07:00:52.207Z,2.9
2023-03-27T07:02:53.871Z,2.9
2023-03-27T07:08:50.035Z,3.0
2023-03-27T07:10:59.980Z,3.0
2023-03-27T07:12:51.678Z,3.0
2023-03-27T07:16:48.432Z,3.0
2023-03-27T07:18:47.698Z,3.0
2023-03-27T07:20:49.338Z,3.2
2023-03-27T07:28:46.537Z,3.1
2023-03-27T07:30:45.304Z,3.2
2023-03-27T07:34:45.191Z,3.1
2023-03-27T07:36:43.990Z,3.1
2023-03-27T07:38:44.364Z,3.2
2023-03-27T07:40:45.015Z,3.3
2023-03-27T07:42:44.391Z,3.4
2023-03-27T07:46:41.890Z,3.7
2023-03-27T07:48:41.486Z,3.7
2023-03-27T07:50:41.218Z,3.7
2023-03-27T07:52:43.620Z,3.6
2023-03-27T07:54:40.089Z,3.5
2023-03-27T07:56:40.388Z,3.6
2023-03-27T07:58:39.917Z,3.5
2023-03-27T08:00:41.740Z,3.5
2023-03-27T08:02:38.723Z,3.6
2023-03-27T08:04:38.782Z,3.7
2023-03-27T08:06:37.622Z,3.8
2023-03-27T08:08:37.065Z,3.8
2023-03-27T08:12:37.660Z,4.1
2023-03-27T08:14:35.868Z,4.1
2023-03-27T08:16:36.025Z,3.9
2023-03-27T08:18:36.923Z,4.0
2023-03-27T08:20:34.705Z,4.0
2023-03-27T08:22:36.054Z,4.0
2023-03-27T08:24:34.378Z,3.9
2023-03-27T08:26:33.733Z,4.0
2023-03-27T08:28:35.279Z,4.0
2023-03-27T08:30:33.147Z,4.0
2023-03-27T08:32:32.728Z,4.1
2023-03-27T08:34:31.712Z,4.2
2023-03-27T08:36:33.430Z,4.2
2023-03-27T08:38:32.454Z,4.1
2023-03-27T08:40:33.037Z,4.1
2023-03-27T08:42:36.025Z,4.2
2023-03-27T08:44:31.836Z,4.2
2023-03-27T08:46:36.465Z,4.4
2023-03-27T08:48:33.032Z,4.4
2023-03-27T08:50:35.429Z,4.6
2023-03-27T08:52:31.634Z,4.4
2023-03-27T08:54:30.818Z,4.6
2023-03-27T08:56:27.883Z,4.7
2023-03-27T08:58:27.075Z,4.6
2023-03-27T09:00:34.351Z,4.7
2023-03-27T09:04:38.355Z,4.9
2023-03-27T09:08:35.208Z,4.7
2023-03-27T09:10:32.557Z,4.7
2023-03-27T09:12:35.670Z,5.0
2023-03-27T09:14:31.196Z,5.2
2023-03-27T09:16:27.254Z,5.1
2023-03-27T09:18:26.912Z,5.3
2023-03-27T09:20:27.826Z,5.3
2023-03-27T09:22:26.607Z,5.3
2023-03-27T09:24:27.235Z,5.2
2023-03-27T09:26:26.786Z,5.3
2023-03-27T09:28:25.830Z,5.0
2023-03-27T09:30:25.366Z,5.0
2023-03-27T09:34:23.321Z,5.1
2023-03-27T09:36:20.835Z,5.2
2023-03-27T09:38:26.096Z,5.2
2023-03-27T09:40:24.600Z,5.3
2023-03-27T09:42:23.046Z,5.2
2023-03-27T09:44:24.323Z,5.4
2023-03-27T09:46:20.732Z,5.6
2023-03-27T09:48:30.691Z,5.9
2023-03-27T09:50:27.409Z,5.6
2023-03-27T09:52:34.720Z,5.7
2023-03-27T09:54:18.034Z,6.1
2023-03-27T09:56:16.495Z,6.3
2023-03-27T09:58:24.211Z,5.9
2023-03-27T10:02:20.029Z,5.9
2023-03-27T10:04:16.648Z,5.8
2023-03-27T10:06:23.054Z,5.8
2023-03-27T10:08:29.485Z,5.8
2023-03-27T10:10:16.528Z,5.9
2023-03-27T10:12:18.522Z,6.2
2023-03-27T10:16:16.875Z,6.4
2023-03-27T10:18:22.577Z,6.3
2023-03-27T10:20:16.480Z,6.0
2023-03-27T10:22:18.966Z,5.8
2023-03-27T10:24:19.770Z,5.9
2023-03-27T10:26:12.111Z,6.0
2023-03-27T10:28:17.029Z,6.2
2023-03-27T10:32:09.211Z,5.4
2023-03-27T10:34:27.907Z,5.0
2023-03-27T10:36:10.902Z,4.4
2023-03-27T10:38:13.091Z,3.9
2023-03-27T10:40:17.350Z,3.9
2023-03-27T10:42:08.881Z,3.9
2023-03-27T10:44:15.780Z,3.7
2023-03-27T10:46:11.211Z,3.7
2023-03-27T10:54:14.380Z,4.1
2023-03-27T10:56:14.245Z,4.2
2023-03-27T10:58:15.482Z,4.2
2023-03-27T11:00:12.553Z,4.3
2023-03-27T11:02:13.898Z,4.3
2023-03-27T11:04:10.464Z,4.4
2023-03-27T11:06:06.875Z,4.4
2023-03-27T11:08:07.962Z,4.6
2023-03-27T11:10:08.615Z,4.5
2023-03-27T11:12:04.345Z,4.5
2023-03-27T11:16:05.428Z,4.7
2023-03-27T11:18:05.897Z,4.8
2023-03-27T11:20:06.176Z,4.9
2023-03-27T11:22:04.948Z,5.0
2023-03-27T11:23:59.113Z,5.4
2023-03-27T11:26:01.917Z,5.4
2023-03-27T11:28:05.918Z,5.5
2023-03-27T11:30:10.036Z,5.9
2023-03-27T11:32:05.107Z,6.2
2023-03-27T11:34:05.023Z,6.2
2023-03-27T11:38:00.515Z,6.7
2023-03-27T11:40:03.503Z,7.0
2023-03-27T11:41:57.793Z,6.9
2023-03-27T11:43:54.666Z,7.2
2023-03-27T11:46:08.966Z,7.2
2023-03-27T11:50:08.377Z,7.0
2023-03-27T11:52:04.124Z,6.9
2023-03-27T11:54:08.488Z,6.8
2023-03-27T11:56:05.147Z,6.3
2023-03-27T11:58:05.433Z,5.5
2023-03-27T12:00:04.843Z,5.6
2023-03-27T12:01:57.270Z,5.7
2023-03-27T12:04:11.080Z,5.7
2023-03-27T12:06:08.723Z,5.6
2023-03-27T12:08:01.077Z,5.8
2023-03-27T12:10:02.359Z,5.7
2023-03-27T12:12:07.365Z,5.4
2023-03-27T12:16:01.496Z,5.5
2023-03-27T12:17:57.066Z,5.4
2023-03-27T12:20:09.833Z,5.7
2023-03-27T12:22:00.340Z,6.0
2023-03-27T12:24:07.057Z,5.8
2023-03-27T12:26:04.318Z,6.0
2023-03-27T12:28:00.390Z,6.2
2023-03-27T12:29:59.619Z,6.2
2023-03-27T12:32:00.814Z,6.1
2023-03-27T12:33:51.084Z,6.0
2023-03-27T12:35:49.277Z,6.0
2023-03-27T12:37:48.307Z,6.3
2023-03-27T12:39:51.815Z,6.3
2023-03-27T12:41:44.857Z,6.3
2023-03-27T12:43:45.641Z,6.2
2023-03-27T12:46:03.273Z,6.3
2023-03-27T12:49:48.024Z,6.6
2023-03-27T12:51:46.565Z,6.7
2023-03-27T12:53:47.312Z,7.1
2023-03-27T12:55:41.590Z,7.2
2023-03-27T12:59:51.954Z,7.6
2023-03-27T13:01:58.779Z,7.6
2023-03-27T13:03:58.499Z,7.6
2023-03-27T13:05:54.717Z,7.5
2023-03-27T13:07:50.344Z,7.5
2023-03-27T13:09:54.252Z,7.6
2023-03-27T13:11:48.545Z,7.6
2023-03-27T13:15:56.792Z,8.2
2023-03-27T13:17:50.054Z,8.1
2023-03-27T13:19:49.680Z,7.7
2023-03-27T13:21:47.823Z,7.3
2023-03-27T13:23:53.989Z,7.3
2023-03-27T13:27:48.603Z,7.1
2023-03-27T13:29:36.383Z,7.2
2023-03-27T13:31:55.850Z,7.4
2023-03-27T13:33:43.021Z,7.6
2023-03-27T13:35:40.356Z,8.0
2023-03-27T13:37:52.650Z,8.1
2023-03-27T13:39:39.311Z,7.7
2023-03-27T13:41:51.098Z,7.1
2023-03-27T13:43:34.721Z,6.8
2023-03-27T13:45:41.027Z,6.4
2023-03-27T13:47:49.594Z,6.5
2023-03-27T13:49:45.693Z,6.3
2023-03-27T13:51:46.645Z,6.5
2023-03-27T13:53:50.067Z,6.5
2023-03-27T13:55:49.027Z,6.9
2023-03-27T13:57:51.147Z,7.0
2023-03-27T13:59:45.848Z,6.9
2023-03-27T14:01:41.176Z,7.2
2023-03-27T14:03:51.442Z,7.3
2023-03-27T14:05:47.082Z,7.4
2023-03-27T14:07:51.413Z,7.2
2023-03-27T14:09:45.256Z,7.4
2023-03-27T14:11:43.322Z,7.5
2023-03-27T14:13:46.809Z,7.4
2023-03-27T14:15:41.447Z,7.7
2023-03-27T14:17:46.300Z,7.8
2023-03-27T14:19:48.090Z,7.5
2023-03-27T14:21:38.483Z,7.2
2023-03-27T14:23:31.590Z,7.0
2023-03-27T14:25:33.230Z,6.9
2023-03-27T14:27:29.332Z,7.0
2023-03-27T14:35:32.054Z,7.5
2023-03-27T14:37:29.148Z,7.5
2023-03-27T14:39:27.298Z,7.6
2023-03-27T14:41:25.088Z,7.8
2023-03-27T14:43:26.860Z,7.8
2023-03-27T14:45:26.769Z,7.6
2023-03-27T14:47:24.394Z,7.9
2023-03-27T14:49:32.049Z,7.9
2023-03-27T14:55:28.780Z,7.5
2023-03-27T14:57:24.748Z,7.5
2023-03-27T14:59:27.196Z,7.2
2023-03-27T15:01:22.564Z,7.4
2023-03-27T15:05:21.558Z,7.0
2023-03-27T15:07:27.464Z,6.8
2023-03-27T15:09:22.361Z,6.8
2023-03-27T15:13:23.472Z,6.5
2023-03-27T15:15:23.870Z,6.5
2023-03-27T15:17:19.733Z,6.5
2023-03-27T15:19:22.072Z,6.5
2023-03-27T15:21:33.585Z,6.5
2023-03-27T15:23:22.941Z,6.5
2023-03-27T15:25:22.285Z,6.7
2023-03-27T15:27:21.920Z,6.8
2023-03-27T15:29:26.300Z,6.8
2023-03-27T15:31:18.062Z,6.6
2023-03-27T15:33:20.981Z,6.4
2023-03-27T15:35:22.751Z,6.1
2023-03-27T15:37:18.375Z,6.2
2023-03-27T15:39:20.226Z,6.1
2023-03-27T15:41:35.334Z,6.1
2023-03-27T15:47:24.131Z,6.2
2023-03-27T15:49:20.351Z,6.3
2023-03-27T15:51:28.365Z,6.4
2023-03-27T15:53:33.287Z,6.2
2023-03-27T15:55:33.205Z,6.1
2023-03-27T15:57:15.049Z,6.1
2023-03-27T15:59:14.811Z,6.1
2023-03-27T16:01:18.620Z,6.2
2023-03-27T16:03:18.469Z,6.2
2023-03-27T16:05:16.559Z,6.2
2023-03-27T16:07:16.861Z,6.1
2023-03-27T16:09:22.272Z,6.0
2023-03-27T16:11:11.258Z,6.1
2023-03-27T16:13:24.550Z,6.1
2023-03-27T16:17:18.697Z,6.1
2023-03-27T16:19:12.529Z,6.2
2023-03-27T16:21:12.321Z,6.3
2023-03-27T16:23:09.232Z,6.3
2023-03-27T16:25:10.837Z,6.3
2023-03-27T16:27:09.317Z,6.1
2023-03-27T16:29:09.597Z,6.0
2023-03-27T16:37:07.645Z,6.1
2023-03-27T16:43:06.004Z,6.1
2023-03-27T16:45:06.074Z,6.0
2023-03-27T16:49:05.805Z,5.9
2023-03-27T16:53:03.891Z,5.8
2023-03-27T16:55:05.997Z,5.7
2023-03-27T16:57:03.270Z,5.7
2023-03-27T16:59:03.682Z,5.6
2023-03-27T17:01:03.233Z,5.6
2023-03-27T17:03:02.669Z,5.4
2023-03-27T17:05:02.079Z,5.4
2023-03-27T17:07:01.535Z,5.3
2023-03-27T17:09:01.219Z,5.2
2023-03-27T17:11:02.116Z,5.2
2023-03-27T17:13:00.973Z,5.1
2023-03-27T17:15:00.233Z,5.1
2023-03-27T17:17:00.147Z,5.1
2023-03-27T17:19:00.139Z,5.1
2023-03-27T17:20:59.298Z,5.1
2023-03-27T17:22:58.880Z,5.1
2023-03-27T17:25:01.322Z,5.1
2023-03-27T17:26:58.110Z,5.0
2023-03-27T17:28:58.065Z,5.0
2023-03-27T17:32:57.148Z,5.0
2023-03-27T17:34:56.675Z,4.9
2023-03-27T17:36:56.626Z,4.9
2023-03-27T17:38:55.977Z,4.9
2023-03-27T17:40:55.637Z,4.9
2023-03-27T17:42:55.268Z,4.9
2023-03-27T17:44:54.940Z,4.8
2023-03-27T17:46:54.558Z,4.7
2023-03-27T17:48:56.146Z,4.8
2023-03-27T17:51:07.550Z,4.7
2023-03-27T17:52:53.654Z,4.7
2023-03-27T17:54:53.466Z,4.6
2023-03-27T17:56:52.952Z,4.6
2023-03-27T17:58:52.508Z,4.6
2023-03-27T18:00:52.713Z,4.6
2023-03-27T18:02:51.777Z,4.5
2023-03-27T18:06:51.667Z,4.4
2023-03-27T18:08:50.684Z,4.4
2023-03-27T18:10:50.584Z,4.4
2023-03-27T18:16:49.862Z,4.3
2023-03-27T18:20:49.259Z,4.2
2023-03-27T18:22:48.081Z,4.2
2023-03-27T18:24:47.755Z,4.2
2023-03-27T18:26:47.381Z,4.2
2023-03-27T18:28:47.249Z,4.1
2023-03-27T18:30:55.919Z,4.1
2023-03-27T18:32:46.330Z,4.1
2023-03-27T18:34:45.958Z,4.0
2023-03-27T18:36:49.741Z,3.9
2023-03-27T18:40:46.792Z,3.9
2023-03-27T18:44:43.852Z,3.9
2023-03-27T18:46:43.516Z,3.8
2023-03-27T18:48:44.245Z,3.8
2023-03-27T18:50:42.765Z,3.8
2023-03-27T18:52:43.356Z,3.8
2023-03-27T18:54:42.425Z,3.8
2023-03-27T18:56:41.760Z,3.8
2023-03-27T18:58:41.565Z,3.8
2023-03-27T19:00:41.715Z,3.8
2023-03-27T19:04:40.520Z,3.8
2023-03-27T19:06:39.577Z,3.8
2023-03-27T19:08:41.106Z,3.7
2023-03-27T19:12:38.476Z,3.7
2023-03-27T19:14:40.232Z,3.7
2023-03-27T19:16:37.987Z,3.7
2023-03-27T19:18:37.223Z,3.7
2023-03-27T19:20:36.941Z,3.6
2023-03-27T19:22:36.551Z,3.6
2023-03-27T19:24:36.123Z,3.6
2023-03-27T19:26:36.350Z,3.6
2023-03-27T19:28:36.192Z,3.5
2023-03-27T19:30:35.185Z,3.5
2023-03-27T19:32:34.707Z,3.5
2023-03-27T19:34:42.474Z,3.5
2023-03-27T19:36:33.780Z,3.4
2023-03-27T19:38:33.566Z,3.3
2023-03-27T19:40:33.152Z,3.3
2023-03-27T19:42:33.079Z,3.2
2023-03-27T19:46:31.821Z,3.2
2023-03-27T19:48:31.649Z,3.2
2023-03-27T19:52:30.605Z,3.1
2023-03-27T19:54:31.213Z,3.0
2023-03-27T19:56:29.530Z,3.0
2023-03-27T19:58:29.608Z,2.7
2023-03-27T20:00:31.299Z,2.8
2023-03-27T20:02:28.262Z,2.7
2023-03-27T20:04:28.109Z,2.9
2023-03-27T20:10:26.593Z,2.8
2023-03-27T20:12:26.365Z,2.7
2023-03-27T20:14:25.828Z,2.5
2023-03-27T20:16:26.985Z,2.4
2023-03-27T20:18:24.828Z,2.3
2023-03-27T20:20:24.574Z,2.4
2023-03-27T20:22:24.101Z,2.4
2023-03-27T20:24:23.981Z,2.1
2023-03-27T20:26:23.469Z,1.8
2023-03-27T20:28:23.083Z,2.0
2023-03-27T20:30:22.438Z,2.0
2023-03-27T20:32:22.109Z,1.8
2023-03-27T20:34:23.185Z,1.6
2023-03-27T20:36:22.127Z,1.7
2023-03-27T20:42:22.038Z,1.6
2023-03-27T20:44:19.301Z,1.5
2023-03-27T20:46:19.491Z,1.2
2023-03-27T20:48:20.788Z,1.4
2023-03-27T20:50:18.134Z,1.4
2023-03-27T20:52:18.824Z,1.4
2023-03-27T20:54:18.679Z,1.5
2023-03-27T20:58:16.395Z,1.4
2023-03-27T21:00:16.624Z,1.3
2023-03-27T21:04:15.166Z,1.4
2023-03-27T21:06:17.934Z,1.4
2023-03-27T21:08:14.874Z,1.4
2023-03-27T21:10:13.776Z,1.3
2023-03-27T21:12:13.330Z,1.3
2023-03-27T21:14:12.965Z,1.2
2023-03-27T21:16:12.447Z,1.2
2023-03-27T21:20:11.760Z,1.3
2023-03-27T21:22:11.031Z,1.5
2023-03-27T21:24:10.695Z,1.7
2023-03-27T21:26:10.465Z,1.8
2023-03-27T21:28:09.971Z,1.8
2023-03-27T21:30:10.452Z,1.5
2023-03-27T21:32:09.385Z,1.4
2023-03-27T21:34:08.238Z,1.3
2023-03-27T21:36:09.642Z,1.5
2023-03-27T21:38:07.438Z,1.4
2023-03-27T21:40:08.273Z,1.3
2023-03-27T21:42:06.595Z,1.3
2023-03-27T21:44:06.363Z,1.4
2023-03-27T21:46:06.492Z,1.1
2023-03-27T21:48:05.493Z,1.3
2023-03-27T21:50:05.907Z,1.2
2023-03-27T21:52:04.505Z,1.2
2023-03-27T21:54:03.899Z,1.2
2023-03-27T21:56:04.505Z,1.1
2023-03-27T21:58:03.738Z,1.0
2023-03-27T22:00:03.292Z,1.1
2023-03-27T22:02:01.947Z,0.9
2023-03-27T22:04:01.323Z,1.1
2023-03-27T22:06:11.813Z,0.9
2023-03-27T22:08:01.261Z,0.9
2023-03-27T22:10:00.318Z,0.8
2023-03-27T22:11:59.592Z,0.9
2023-03-27T22:13:59.066Z,0.9
2023-03-27T22:17:59.043Z,0.7
2023-03-27T22:19:58.201Z,0.9
2023-03-27T22:23:58.303Z,0.8
2023-03-27T22:25:56.278Z,0.8
2023-03-27T22:27:55.694Z,0.8
2023-03-27T22:29:55.280Z,0.9
2023-03-27T22:31:55.142Z,0.8
2023-03-27T22:33:54.836Z,0.6
2023-03-27T22:37:53.477Z,0.7
2023-03-27T22:39:52.826Z,0.7
2023-03-27T22:41:52.536Z,0.7
2023-03-27T22:43:52.777Z,0.5
2023-03-27T22:45:51.475Z,0.6
2023-03-27T22:47:50.901Z,0.7
2023-03-27T22:49:50.471Z,0.6
2023-03-27T22:51:50.398Z,0.5
2023-03-27T22:53:50.195Z,0.2
2023-03-27T22:55:49.429Z,0.2
2023-03-27T22:57:48.545Z,0.3
2023-03-27T22:59:49.879Z,0.3
2023-03-27T23:01:47.641Z,0.4
2023-03-27T23:03:47.118Z,0.3
2023-03-27T23:05:49.772Z,0.4
2023-03-27T23:07:46.380Z,0.4
2023-03-27T23:09:45.449Z,0.1
2023-03-27T23:11:46.075Z,0.0
2023-03-27T23:13:44.947Z,-0.0
2023-03-27T23:15:43.966Z,0.1
2023-03-27T23:19:43.317Z,-0.3
2023-03-27T23:21:42.580Z,-0.0
2023-03-27T23:25:41.841Z,0.0
2023-03-27T23:27:40.986Z,-0.1
2023-03-27T23:29:40.625Z,-0.1
2023-03-27T23:33:41.390Z,0.1
2023-03-27T23:35:39.312Z,0.0
2023-03-27T23:37:38.616Z,0.0
2023-03-27T23:39:38.216Z,-0.4
2023-03-27T23:43:37.672Z,-0.3
2023-03-27T23:45:37.002Z,-0.4
2023-03-27T23:49:35.658Z,-0.6
2023-03-27T23:51:35.269Z,-0.4
2023-03-27T23:53:35.501Z,-0.3
2023-03-27T23:55:34.277Z,-0.3
2023-03-27T23:57:33.966Z,-0.3
2023-03-27T23:59:37.948Z,-0.1
